sensor_id;sensor_type;location;lat;lon;timestamp;pressure;altitude;pressure_sealevel;temperature;humidity
60337;BME280;46978;50.288;28.624;2023-11-19T00:00:44;99620.44;;;-2.14;81.93
60337;BME280;46978;50.288;28.624;2023-11-19T00:01:45;99625.47;;;-2.16;81.78
60337;BME280;46978;50.288;28.624;2023-11-19T00:02:47;99617.90;;;-2.14;82.08
60337;BME280;46978;50.288;28.624;2023-11-19T00:03:48;99614.56;;;-2.13;81.97
60337;BME280;46978;50.288;28.624;2023-11-19T00:04:50;99617.90;;;-2.14;82.04
60337;BME280;46978;50.288;28.624;2023-11-19T00:05:51;99614.50;;;-2.14;82.84
60337;BME280;46978;50.288;28.624;2023-11-19T00:06:53;99606.08;;;-2.13;82.85
60337;BME280;46978;50.288;28.624;2023-11-19T00:07:54;99616.30;;;-2.12;82.93
60337;BME280;46978;50.288;28.624;2023-11-19T00:08:56;99608.67;;;-2.12;82.93
60337;BME280;46978;50.288;28.624;2023-11-19T00:09:58;99611.27;;;-2.10;82.65
60337;BME280;46978;50.288;28.624;2023-11-19T00:10:59;99605.30;;;-2.11;82.42
60337;BME280;46978;50.288;28.624;2023-11-19T00:12:01;99606.24;;;-2.09;82.48
60337;BME280;46978;50.288;28.624;2023-11-19T00:13:03;99605.47;;;-2.06;82.73
60337;BME280;46978;50.288;28.624;2023-11-19T00:14:05;99604.61;;;-2.07;82.51
60337;BME280;46978;50.288;28.624;2023-11-19T00:15:07;99602.87;;;-2.08;82.54
60337;BME280;46978;50.288;28.624;2023-11-19T00:16:09;99601.22;;;-2.07;83.02
60337;BME280;46978;50.288;28.624;2023-11-19T00:17:10;99598.67;;;-2.07;82.97
60337;BME280;46978;50.288;28.624;2023-11-19T00:18:12;99609.70;;;-2.07;82.95
60337;BME280;46978;50.288;28.624;2023-11-19T00:19:13;99600.33;;;-2.08;82.41
60337;BME280;46978;50.288;28.624;2023-11-19T00:20:17;99606.24;;;-2.09;82.08
60337;BME280;46978;50.288;28.624;2023-11-19T00:21:19;99605.41;;;-2.08;82.33
60337;BME280;46978;50.288;28.624;2023-11-19T00:22:21;99604.55;;;-2.08;82.56
60337;BME280;46978;50.288;28.624;2023-11-19T00:23:22;99612.23;;;-2.07;82.52
60337;BME280;46978;50.288;28.624;2023-11-19T00:24:24;99608.78;;;-2.09;82.70
60337;BME280;46978;50.288;28.624;2023-11-19T00:25:26;99608.84;;;-2.07;82.81
60337;BME280;46978;50.288;28.624;2023-11-19T00:26:28;99605.30;;;-2.11;82.04
60337;BME280;46978;50.288;28.624;2023-11-19T00:27:29;99612.02;;;-2.13;82.42
60337;BME280;46978;50.288;28.624;2023-11-19T00:28:31;99609.53;;;-2.11;82.78
60337;BME280;46978;50.288;28.624;2023-11-19T00:29:33;99608.67;;;-2.12;83.12
60337;BME280;46978;50.288;28.624;2023-11-19T00:30:35;99607.73;;;-2.14;82.38
60337;BME280;46978;50.288;28.624;2023-11-19T00:31:36;99616.98;;;-2.16;81.98
60337;BME280;46978;50.288;28.624;2023-11-19T00:32:38;99609.36;;;-2.16;81.91
60337;BME280;46978;50.288;28.624;2023-11-19T00:33:39;99616.93;;;-2.18;81.47
60337;BME280;46978;50.288;28.624;2023-11-19T00:34:43;99621.16;;;-2.18;81.52
60337;BME280;46978;50.288;28.624;2023-11-19T00:35:45;99618.67;;;-2.17;81.55
60337;BME280;46978;50.288;28.624;2023-11-19T00:36:47;99618.67;;;-2.17;81.42
60337;BME280;46978;50.288;28.624;2023-11-19T00:37:48;99621.16;;;-2.18;81.35
60337;BME280;46978;50.288;28.624;2023-11-19T00:38:50;99617.73;;;-2.19;81.19
60337;BME280;46978;50.288;28.624;2023-11-19T00:39:52;99623.76;;;-2.17;81.26
60337;BME280;46978;50.288;28.624;2023-11-19T00:40:53;99627.09;;;-2.18;80.31
60337;BME280;46978;50.288;28.624;2023-11-19T00:41:55;99625.30;;;-2.20;80.34
60337;BME280;46978;50.288;28.624;2023-11-19T00:42:56;99622.02;;;-2.18;80.39
60337;BME280;46978;50.288;28.624;2023-11-19T00:43:58;99620.27;;;-2.19;80.53
60337;BME280;46978;50.288;28.624;2023-11-19T00:44:59;99625.41;;;-2.17;80.59
60337;BME280;46978;50.288;28.624;2023-11-19T00:46:01;99612.70;;;-2.17;80.77
60337;BME280;46978;50.288;28.624;2023-11-19T00:47:03;99618.67;;;-2.17;80.50
60337;BME280;46978;50.288;28.624;2023-11-19T00:48:05;99622.02;;;-2.18;80.37
60337;BME280;46978;50.288;28.624;2023-11-19T00:49:07;99616.12;;;-2.17;80.52
60337;BME280;46978;50.288;28.624;2023-11-19T00:50:09;99616.98;;;-2.16;80.26
60337;BME280;46978;50.288;28.624;2023-11-19T00:51:12;99623.76;;;-2.17;80.35
60337;BME280;46978;50.288;28.624;2023-11-19T00:52:13;99622.88;;;-2.17;80.45
60337;BME280;46978;50.288;28.624;2023-11-19T00:53:15;99616.98;;;-2.16;80.65
60337;BME280;46978;50.288;28.624;2023-11-19T00:54:17;99613.59;;;-2.17;80.63
60337;BME280;46978;50.288;28.624;2023-11-19T00:55:18;99612.70;;;-2.17;80.81
60337;BME280;46978;50.288;28.624;2023-11-19T00:56:20;99617.84;;;-2.16;80.52
60337;BME280;46978;50.288;28.624;2023-11-19T00:57:21;99619.53;;;-2.16;80.79
60337;BME280;46978;50.288;28.624;2023-11-19T00:58:23;99616.19;;;-2.15;80.81
60337;BME280;46978;50.288;28.624;2023-11-19T00:59:25;99617.78;;;-2.17;80.00
60337;BME280;46978;50.288;28.624;2023-11-19T01:00:27;99618.67;;;-2.17;80.08
60337;BME280;46978;50.288;28.624;2023-11-19T01:01:28;99616.88;;;-2.19;80.25
60337;BME280;46978;50.288;28.624;2023-11-19T01:02:30;99615.19;;;-2.19;80.57
60337;BME280;46978;50.288;28.624;2023-11-19T01:03:32;99616.88;;;-2.19;79.98
60337;BME280;46978;50.288;28.624;2023-11-19T01:04:34;99621.90;;;-2.21;80.01
60337;BME280;46978;50.288;28.624;2023-11-19T01:05:36;99624.38;;;-2.22;80.14
60337;BME280;46978;50.288;28.624;2023-11-19T01:06:38;99624.38;;;-2.22;80.34
60337;BME280;46978;50.288;28.624;2023-11-19T01:07:40;99625.95;;;-2.26;79.47
60337;BME280;46978;50.288;28.624;2023-11-19T01:08:42;99625.95;;;-2.26;79.79
60337;BME280;46978;50.288;28.624;2023-11-19T01:09:44;99631.78;;;-2.28;79.34
60337;BME280;46978;50.288;28.624;2023-11-19T01:10:46;99624.09;;;-2.30;79.27
60337;BME280;46978;50.288;28.624;2023-11-19T01:11:47;99627.27;;;-2.36;78.47
60337;BME280;46978;50.288;28.624;2023-11-19T01:12:49;99631.55;;;-2.35;78.93
60337;BME280;46978;50.288;28.624;2023-11-19T01:13:51;99618.73;;;-2.38;78.39
60337;BME280;46978;50.288;28.624;2023-11-19T01:14:53;99625.31;;;-2.43;78.37
60337;BME280;46978;50.288;28.624;2023-11-19T01:15:54;99619.47;;;-2.40;78.65
60337;BME280;46978;50.288;28.624;2023-11-19T01:16:56;99616.12;;;-2.39;78.78
60337;BME280;46978;50.288;28.624;2023-11-19T01:17:57;99614.44;;;-2.39;78.55
60337;BME280;46978;50.288;28.624;2023-11-19T01:18:59;99611.10;;;-2.38;78.39
60337;BME280;46978;50.288;28.624;2023-11-19T01:20:00;99617.09;;;-2.36;78.68
60337;BME280;46978;50.288;28.624;2023-11-19T01:21:03;99616.24;;;-2.36;78.52
60337;BME280;46978;50.288;28.624;2023-11-19T01:22:05;99615.39;;;-2.37;77.92
60337;BME280;46978;50.288;28.624;2023-11-19T01:23:06;99609.42;;;-2.37;78.00
60337;BME280;46978;50.288;28.624;2023-11-19T01:24:08;99606.88;;;-2.37;78.37
60337;BME280;46978;50.288;28.624;2023-11-19T01:25:10;99608.62;;;-2.36;78.76
60337;BME280;46978;50.288;28.624;2023-11-19T01:26:12;99600.20;;;-2.35;78.84
60337;BME280;46978;50.288;28.624;2023-11-19T01:27:14;99595.91;;;-2.36;77.44
60337;BME280;46978;50.288;28.624;2023-11-19T01:28:16;99594.11;;;-2.39;77.62
60337;BME280;46978;50.288;28.624;2023-11-19T01:29:17;99590.77;;;-2.38;78.18
60337;BME280;46978;50.288;28.624;2023-11-19T01:30:19;99594.23;;;-2.36;78.43
60337;BME280;46978;50.288;28.624;2023-11-19T01:31:21;99598.34;;;-2.39;77.59
60337;BME280;46978;50.288;28.624;2023-11-19T01:32:22;99594.83;;;-2.43;77.72
60337;BME280;46978;50.288;28.624;2023-11-19T01:33:24;99602.51;;;-2.41;77.94
60337;BME280;46978;50.288;28.624;2023-11-19T01:34:25;99605.91;;;-2.41;77.81
60337;BME280;46978;50.288;28.624;2023-11-19T01:35:27;99601.67;;;-2.40;77.68
60337;BME280;46978;50.288;28.624;2023-11-19T01:36:28;99606.64;;;-2.43;77.04
60337;BME280;46978;50.288;28.624;2023-11-19T01:37:30;99605.79;;;-2.44;76.88
60337;BME280;46978;50.288;28.624;2023-11-19T01:38:32;99606.59;;;-2.45;76.97
60337;BME280;46978;50.288;28.624;2023-11-19T01:39:33;99600.59;;;-2.47;76.93
60337;BME280;46978;50.288;28.624;2023-11-19T01:40:35;99597.14;;;-2.49;76.98
60337;BME280;46978;50.288;28.624;2023-11-19T01:41:37;99596.25;;;-2.49;76.96
60337;BME280;46978;50.288;28.624;2023-11-19T01:42:39;99593.77;;;-2.48;77.15
60337;BME280;46978;50.288;28.624;2023-11-19T01:43:40;99589.57;;;-2.47;77.35
60337;BME280;46978;50.288;28.624;2023-11-19T01:44:42;99593.83;;;-2.46;77.84
60337;BME280;46978;50.288;28.624;2023-11-19T01:45:44;99591.28;;;-2.46;77.49
60337;BME280;46978;50.288;28.624;2023-11-19T01:46:46;99589.63;;;-2.46;77.23
60337;BME280;46978;50.288;28.624;2023-11-19T01:47:48;99586.14;;;-2.48;77.26
60337;BME280;46978;50.288;28.624;2023-11-19T01:48:50;99586.20;;;-2.46;77.63
60337;BME280;46978;50.288;28.624;2023-11-19T01:49:52;99582.01;;;-2.46;77.67
60337;BME280;46978;50.288;28.624;2023-11-19T01:50:54;99584.60;;;-2.44;77.75
60337;BME280;46978;50.288;28.624;2023-11-19T01:51:57;99576.98;;;-2.44;77.69
60337;BME280;46978;50.288;28.624;2023-11-19T01:52:59;99572.70;;;-2.45;77.52
60337;BME280;46978;50.288;28.624;2023-11-19T01:54:01;99576.98;;;-2.44;77.42
60337;BME280;46978;50.288;28.624;2023-11-19T01:55:04;99582.01;;;-2.46;77.58
60337;BME280;46978;50.288;28.624;2023-11-19T01:56:08;99576.09;;;-2.45;77.69
60337;BME280;46978;50.288;28.624;2023-11-19T01:57:11;99576.09;;;-2.45;77.81
60337;BME280;46978;50.288;28.624;2023-11-19T01:58:13;99576.09;;;-2.45;77.96
60337;BME280;46978;50.288;28.624;2023-11-19T01:59:15;99572.75;;;-2.44;78.01
60337;BME280;46978;50.288;28.624;2023-11-19T02:00:18;99581.12;;;-2.46;77.50
60337;BME280;46978;50.288;28.624;2023-11-19T02:01:21;99570.95;;;-2.46;77.69
60337;BME280;46978;50.288;28.624;2023-11-19T02:02:23;99576.03;;;-2.46;77.77
60337;BME280;46978;50.288;28.624;2023-11-19T02:03:25;99577.72;;;-2.47;78.18
60337;BME280;46978;50.288;28.624;2023-11-19T02:04:28;99568.36;;;-2.48;77.96
60337;BME280;46978;50.288;28.624;2023-11-19T02:05:29;99572.58;;;-2.48;78.07
60337;BME280;46978;50.288;28.624;2023-11-19T02:06:33;99568.23;;;-2.51;78.22
60337;BME280;46978;50.288;28.624;2023-11-19T02:07:35;99566.53;;;-2.52;78.67
60337;BME280;46978;50.288;28.624;2023-11-19T02:08:37;99557.22;;;-2.52;78.48
60337;BME280;46978;50.288;28.624;2023-11-19T02:09:38;99568.19;;;-2.53;78.36
60337;BME280;46978;50.288;28.624;2023-11-19T02:10:40;99558.85;;;-2.54;78.67
60337;BME280;46978;50.288;28.624;2023-11-19T02:11:41;99560.50;;;-2.54;78.87
60337;BME280;46978;50.288;28.624;2023-11-19T02:12:43;99556.25;;;-2.55;79.05
60337;BME280;46978;50.288;28.624;2023-11-19T02:13:44;99558.73;;;-2.57;79.15
60337;BME280;46978;50.288;28.624;2023-11-19T02:14:46;99563.81;;;-2.57;79.62
60337;BME280;46978;50.288;28.624;2023-11-19T02:15:48;99561.33;;;-2.55;79.39
60337;BME280;46978;50.288;28.624;2023-11-19T02:16:49;99557.91;;;-2.56;79.22
60337;BME280;46978;50.288;28.624;2023-11-19T02:17:51;99556.94;;;-2.59;79.05
60337;BME280;46978;50.288;28.624;2023-11-19T02:18:52;99561.22;;;-2.58;78.95
60337;BME280;46978;50.288;28.624;2023-11-19T02:19:54;99549.38;;;-2.58;79.05
60337;BME280;46978;50.288;28.624;2023-11-19T02:20:58;99550.28;;;-2.56;79.62
60337;BME280;46978;50.288;28.624;2023-11-19T02:22:00;99546.95;;;-2.55;79.63
60337;BME280;46978;50.288;28.624;2023-11-19T02:23:01;99547.86;;;-2.53;79.94
60337;BME280;46978;50.288;28.624;2023-11-19T02:24:06;99547.86;;;-2.53;79.82
60337;BME280;46978;50.288;28.624;2023-11-19T02:25:12;99543.66;;;-2.52;79.86
60337;BME280;46978;50.288;28.624;2023-11-19T02:26:26;99540.30;;;-2.51;80.00
60337;BME280;46978;50.288;28.624;2023-11-19T02:27:51;99530.19;;;-2.49;79.89
60337;BME280;46978;50.288;28.624;2023-11-19T02:28:52;99537.06;;;-2.47;80.20
60337;BME280;46978;50.288;28.624;2023-11-19T02:29:53;99531.88;;;-2.50;79.72
60337;BME280;46978;50.288;28.624;2023-11-19T02:30:55;99534.41;;;-2.50;79.70
60337;BME280;46978;50.288;28.624;2023-11-19T02:31:56;99532.67;;;-2.51;79.90
60337;BME280;46978;50.288;28.624;2023-11-19T02:32:59;99534.36;;;-2.52;80.20
60337;BME280;46978;50.288;28.624;2023-11-19T02:34:00;99534.36;;;-2.52;80.36
60337;BME280;46978;50.288;28.624;2023-11-19T02:35:02;99527.53;;;-2.53;80.89
60337;BME280;46978;50.288;28.624;2023-11-19T02:36:08;99533.50;;;-2.52;80.85
60337;BME280;46978;50.288;28.624;2023-11-19T02:37:10;99532.67;;;-2.51;80.74
60337;BME280;46978;50.288;28.624;2023-11-19T02:38:11;99531.81;;;-2.52;80.65
60337;BME280;46978;50.288;28.624;2023-11-19T02:39:13;99532.61;;;-2.53;80.53
60337;BME280;46978;50.288;28.624;2023-11-19T02:40:15;99536.78;;;-2.55;80.34
60337;BME280;46978;50.288;28.624;2023-11-19T02:41:17;99534.92;;;-2.59;79.66
60337;BME280;46978;50.288;28.624;2023-11-19T02:42:18;99532.27;;;-2.62;79.55
60337;BME280;46978;50.288;28.624;2023-11-19T02:43:20;99532.33;;;-2.60;79.59
60337;BME280;46978;50.288;28.624;2023-11-19T02:44:21;99529.65;;;-2.65;79.52
60337;BME280;46978;50.288;28.624;2023-11-19T02:45:23;99536.38;;;-2.65;79.03
60337;BME280;46978;50.288;28.624;2023-11-19T02:46:26;99534.73;;;-2.65;79.19
60337;BME280;46978;50.288;28.624;2023-11-19T02:47:27;99526.22;;;-2.65;79.51
60337;BME280;46978;50.288;28.624;2023-11-19T02:48:29;99533.05;;;-2.64;79.34
60337;BME280;46978;50.288;28.624;2023-11-19T02:49:30;99530.45;;;-2.66;78.81
60337;BME280;46978;50.288;28.624;2023-11-19T02:50:32;99529.53;;;-2.68;79.06
60337;BME280;46978;50.288;28.624;2023-11-19T02:51:34;99528.70;;;-2.67;78.93
60337;BME280;46978;50.288;28.624;2023-11-19T02:52:36;99536.27;;;-2.68;78.72
60337;BME280;46978;50.288;28.624;2023-11-19T02:53:37;99529.48;;;-2.69;78.57
60337;BME280;46978;50.288;28.624;2023-11-19T02:54:39;99527.85;;;-2.67;78.59
60337;BME280;46978;50.288;28.624;2023-11-19T02:55:41;99530.27;;;-2.71;78.30
60337;BME280;46978;50.288;28.624;2023-11-19T02:56:43;99524.34;;;-2.71;78.81
60337;BME280;46978;50.288;28.624;2023-11-19T02:57:44;99535.30;;;-2.72;78.45
60337;BME280;46978;50.288;28.624;2023-11-19T02:58:46;99537.78;;;-2.74;78.44
60337;BME280;46978;50.288;28.624;2023-11-19T02:59:48;99534.44;;;-2.73;78.58
60337;BME280;46978;50.288;28.624;2023-11-19T03:00:49;99533.61;;;-2.72;78.90
60337;BME280;46978;50.288;28.624;2023-11-19T03:01:51;99531.91;;;-2.73;78.56
60337;BME280;46978;50.288;28.624;2023-11-19T03:02:53;99536.92;;;-2.74;78.48
60337;BME280;46978;50.288;28.624;2023-11-19T03:03:55;99532.59;;;-2.77;77.78
60337;BME280;46978;50.288;28.624;2023-11-19T03:04:56;99538.52;;;-2.76;78.15
60337;BME280;46978;50.288;28.624;2023-11-19T03:05:58;99536.87;;;-2.76;78.65
60337;BME280;46978;50.288;28.624;2023-11-19T03:07:00;99535.13;;;-2.77;78.64
60337;BME280;46978;50.288;28.624;2023-11-19T03:08:01;99532.64;;;-2.75;78.82
60337;BME280;46978;50.288;28.624;2023-11-19T03:09:03;99526.70;;;-2.76;78.18
60337;BME280;46978;50.288;28.624;2023-11-19T03:10:06;99532.59;;;-2.77;77.79
60337;BME280;46978;50.288;28.624;2023-11-19T03:11:08;99527.50;;;-2.77;77.28
60337;BME280;46978;50.288;28.624;2023-11-19T03:12:09;99529.08;;;-2.80;75.85
60337;BME280;46978;50.288;28.624;2023-11-19T03:13:11;99537.55;;;-2.80;76.44
60337;BME280;46978;50.288;28.624;2023-11-19T03:14:13;99531.61;;;-2.80;76.63
60337;BME280;46978;50.288;28.624;2023-11-19T03:15:15;99528.24;;;-2.79;76.83
60337;BME280;46978;50.288;28.624;2023-11-19T03:16:17;99527.39;;;-2.80;76.59
60337;BME280;46978;50.288;28.624;2023-11-19T03:17:19;99528.24;;;-2.79;77.05
60337;BME280;46978;50.288;28.624;2023-11-19T03:18:20;99526.53;;;-2.80;76.57
60337;BME280;46978;50.288;28.624;2023-11-19T03:19:22;99527.39;;;-2.80;76.64
60337;BME280;46978;50.288;28.624;2023-11-19T03:20:24;99527.39;;;-2.80;76.51
60337;BME280;46978;50.288;28.624;2023-11-19T03:21:29;99528.19;;;-2.81;76.77
60337;BME280;46978;50.288;28.624;2023-11-19T03:22:30;99515.48;;;-2.81;76.89
60337;BME280;46978;50.288;28.624;2023-11-19T03:23:32;99512.89;;;-2.82;75.74
60337;BME280;46978;50.288;28.624;2023-11-19T03:24:33;99512.89;;;-2.82;75.74
60337;BME280;46978;50.288;28.624;2023-11-19T03:25:35;99512.89;;;-2.82;75.55
60337;BME280;46978;50.288;28.624;2023-11-19T03:26:36;99517.97;;;-2.82;75.63
60337;BME280;46978;50.288;28.624;2023-11-19T03:27:39;99512.89;;;-2.82;76.03
60337;BME280;46978;50.288;28.624;2023-11-19T03:28:41;99518.73;;;-2.85;76.10
60337;BME280;46978;50.288;28.624;2023-11-19T03:29:43;99525.53;;;-2.84;75.99
60337;BME280;46978;50.288;28.624;2023-11-19T03:30:44;99522.08;;;-2.86;76.14
60337;BME280;46978;50.288;28.624;2023-11-19T03:31:46;99516.20;;;-2.85;76.62
60337;BME280;46978;50.288;28.624;2023-11-19T03:32:47;99522.98;;;-2.84;76.88
60337;BME280;46978;50.288;28.624;2023-11-19T03:33:49;99526.41;;;-2.83;76.87
60337;BME280;46978;50.288;28.624;2023-11-19T03:34:50;99524.73;;;-2.83;76.24
60337;BME280;46978;50.288;28.624;2023-11-19T03:35:52;99526.48;;;-2.82;76.30
60337;BME280;46978;50.288;28.624;2023-11-19T03:36:57;99528.13;;;-2.82;76.74
60337;BME280;46978;50.288;28.624;2023-11-19T03:37:57;99529.02;;;-2.82;76.63
60337;BME280;46978;50.288;28.624;2023-11-19T03:38:58;99527.39;;;-2.80;76.77
60337;BME280;46978;50.288;28.624;2023-11-19T03:40:00;99531.55;;;-2.82;76.94
60337;BME280;46978;50.288;28.624;2023-11-19T03:41:01;99523.11;;;-2.81;76.57
60337;BME280;46978;50.288;28.624;2023-11-19T03:42:04;99523.94;;;-2.82;76.78
60337;BME280;46978;50.288;28.624;2023-11-19T03:43:05;99526.53;;;-2.80;76.92
60337;BME280;46978;50.288;28.624;2023-11-19T03:44:07;99521.45;;;-2.80;76.63
60337;BME280;46978;50.288;28.624;2023-11-19T03:45:09;99519.83;;;-2.78;76.77
60337;BME280;46978;50.288;28.624;2023-11-19T03:46:19;99511.36;;;-2.79;77.42
60337;BME280;46978;50.288;28.624;2023-11-19T03:47:21;99511.36;;;-2.79;77.42
60337;BME280;46978;50.288;28.624;2023-11-19T03:48:22;99512.33;;;-2.75;76.92
60337;BME280;46978;50.288;28.624;2023-11-19T03:49:24;99511.47;;;-2.76;76.48
60337;BME280;46978;50.288;28.624;2023-11-19T03:50:26;99514.01;;;-2.76;77.06
60337;BME280;46978;50.288;28.624;2023-11-19T03:51:27;99513.18;;;-2.75;77.45
60337;BME280;46978;50.288;28.624;2023-11-19T03:52:29;99512.27;;;-2.77;77.40
60337;BME280;46978;50.288;28.624;2023-11-19T03:53:30;99511.36;;;-2.79;77.63
60337;BME280;46978;50.288;28.624;2023-11-19T03:54:32;99509.67;;;-2.78;77.55
60337;BME280;46978;50.288;28.624;2023-11-19T03:55:33;99507.98;;;-2.78;77.83
60337;BME280;46978;50.288;28.624;2023-11-19T03:56:35;99503.02;;;-2.75;77.88
60337;BME280;46978;50.288;28.624;2023-11-19T03:57:37;99500.48;;;-2.75;77.84
60337;BME280;46978;50.288;28.624;2023-11-19T03:58:39;99493.75;;;-2.74;78.03
60337;BME280;46978;50.288;28.624;2023-11-19T03:59:41;99493.80;;;-2.73;78.00
60337;BME280;46978;50.288;28.624;2023-11-19T04:00:43;99489.52;;;-2.74;78.17
60337;BME280;46978;50.288;28.624;2023-11-19T04:01:44;99484.39;;;-2.75;77.74
60337;BME280;46978;50.288;28.624;2023-11-19T04:02:45;99485.19;;;-2.76;77.47
60337;BME280;46978;50.288;28.624;2023-11-19T04:03:47;99490.27;;;-2.76;77.92
60337;BME280;46978;50.288;28.624;2023-11-19T04:04:49;99480.94;;;-2.77;77.13
60337;BME280;46978;50.288;28.624;2023-11-19T04:05:50;99477.45;;;-2.79;77.51
60337;BME280;46978;50.288;28.624;2023-11-19T04:06:52;99477.51;;;-2.78;77.43
60337;BME280;46978;50.288;28.624;2023-11-19T04:07:53;99489.23;;;-2.81;76.92
60337;BME280;46978;50.288;28.624;2023-11-19T04:08:55;99487.44;;;-2.84;77.04
60337;BME280;46978;50.288;28.624;2023-11-19T04:09:57;99484.95;;;-2.82;77.74
60337;BME280;46978;50.288;28.624;2023-11-19T04:11:00;99483.30;;;-2.82;77.47
60337;BME280;46978;50.288;28.624;2023-11-19T04:12:01;99476.48;;;-2.83;77.60
60337;BME280;46978;50.288;28.624;2023-11-19T04:13:03;99477.34;;;-2.82;77.41
60337;BME280;46978;50.288;28.624;2023-11-19T04:14:04;99476.55;;;-2.81;77.87
60337;BME280;46978;50.288;28.624;2023-11-19T04:15:07;99468.06;;;-2.82;77.93
60337;BME280;46978;50.288;28.624;2023-11-19T04:16:08;99470.72;;;-2.79;78.21
60337;BME280;46978;50.288;28.624;2023-11-19T04:17:10;99474.11;;;-2.78;78.56
60337;BME280;46978;50.288;28.624;2023-11-19T04:18:12;99470.78;;;-2.77;78.40
60337;BME280;46978;50.288;28.624;2023-11-19T04:19:13;99471.62;;;-2.77;78.35
60337;BME280;46978;50.288;28.624;2023-11-19T04:20:15;99468.92;;;-2.81;78.21
60337;BME280;46978;50.288;28.624;2023-11-19T04:21:16;99471.52;;;-2.80;78.50
60337;BME280;46978;50.288;28.624;2023-11-19T04:22:18;99472.43;;;-2.78;78.46
60337;BME280;46978;50.288;28.624;2023-11-19T04:23:19;99461.41;;;-2.78;78.20
60337;BME280;46978;50.288;28.624;2023-11-19T04:24:21;99469.09;;;-2.77;78.25
60337;BME280;46978;50.288;28.624;2023-11-19T04:25:22;99453.80;;;-2.78;78.28
60337;BME280;46978;50.288;28.624;2023-11-19T04:26:24;99460.56;;;-2.79;78.63
60337;BME280;46978;50.288;28.624;2023-11-19T04:27:26;99457.08;;;-2.81;78.49
60337;BME280;46978;50.288;28.624;2023-11-19T04:28:27;99459.67;;;-2.79;78.50
60337;BME280;46978;50.288;28.624;2023-11-19T04:29:29;99450.34;;;-2.80;78.67
60337;BME280;46978;50.288;28.624;2023-11-19T04:30:31;99461.41;;;-2.78;78.75
60337;BME280;46978;50.288;28.624;2023-11-19T04:31:33;99456.34;;;-2.78;79.05
60337;BME280;46978;50.288;28.624;2023-11-19T04:32:34;99454.66;;;-2.78;79.05
60337;BME280;46978;50.288;28.624;2023-11-19T04:33:36;99455.54;;;-2.77;79.16
60337;BME280;46978;50.288;28.624;2023-11-19T04:34:37;99458.14;;;-2.76;79.49
60337;BME280;46978;50.288;28.624;2023-11-19T04:35:39;99458.14;;;-2.76;78.92
60337;BME280;46978;50.288;28.624;2023-11-19T04:36:41;99448.83;;;-2.75;78.97
60337;BME280;46978;50.288;28.624;2023-11-19T04:37:43;99453.91;;;-2.75;78.91
60337;BME280;46978;50.288;28.624;2023-11-19T04:38:44;99449.63;;;-2.76;79.34
60337;BME280;46978;50.288;28.624;2023-11-19T04:39:46;99454.66;;;-2.78;79.53
60337;BME280;46978;50.288;28.624;2023-11-19T04:40:47;99448.72;;;-2.78;79.75
60337;BME280;46978;50.288;28.624;2023-11-19T04:41:51;99446.23;;;-2.77;79.54
60337;BME280;46978;50.288;28.624;2023-11-19T04:42:52;99443.64;;;-2.78;79.56
60337;BME280;46978;50.288;28.624;2023-11-19T04:43:54;99447.03;;;-2.78;79.72
60337;BME280;46978;50.288;28.624;2023-11-19T04:44:55;99448.78;;;-2.77;79.80
60337;BME280;46978;50.288;28.624;2023-11-19T04:45:57;99449.52;;;-2.79;79.08
60337;BME280;46978;50.288;28.624;2023-11-19T04:46:59;99449.52;;;-2.79;79.21
60337;BME280;46978;50.288;28.624;2023-11-19T04:48:00;99447.86;;;-2.79;79.74
60337;BME280;46978;50.288;28.624;2023-11-19T04:49:02;99452.11;;;-2.78;79.73
60337;BME280;46978;50.288;28.624;2023-11-19T04:50:05;99445.38;;;-2.77;79.65
60337;BME280;46978;50.288;28.624;2023-11-19T04:51:07;99447.98;;;-2.76;79.82
60337;BME280;46978;50.288;28.624;2023-11-19T04:52:09;99440.25;;;-2.79;79.81
60337;BME280;46978;50.288;28.624;2023-11-19T04:53:11;99438.62;;;-2.77;80.08
60337;BME280;46978;50.288;28.624;2023-11-19T04:54:13;99435.22;;;-2.77;79.76
60337;BME280;46978;50.288;28.624;2023-11-19T04:55:15;99431.85;;;-2.76;79.74
60337;BME280;46978;50.288;28.624;2023-11-19T04:56:17;99432.73;;;-2.76;79.45
60337;BME280;46978;50.288;28.624;2023-11-19T04:57:18;99432.69;;;-2.77;79.84
60337;BME280;46978;50.288;28.624;2023-11-19T04:58:20;99432.73;;;-2.76;80.11
60337;BME280;46978;50.288;28.624;2023-11-19T04:59:21;99431.05;;;-2.75;80.22
60337;BME280;46978;50.288;28.624;2023-11-19T05:00:23;99429.37;;;-2.75;80.36
60337;BME280;46978;50.288;28.624;2023-11-19T05:01:25;99425.17;;;-2.74;80.34
60337;BME280;46978;50.288;28.624;2023-11-19T05:02:26;99428.57;;;-2.74;80.64
60337;BME280;46978;50.288;28.624;2023-11-19T05:03:28;99425.17;;;-2.74;80.71
60337;BME280;46978;50.288;28.624;2023-11-19T05:04:30;99427.72;;;-2.74;80.94
60337;BME280;46978;50.288;28.624;2023-11-19T05:05:32;99419.16;;;-2.76;80.75
60337;BME280;46978;50.288;28.624;2023-11-19T05:06:34;99419.98;;;-2.77;80.39
60337;BME280;46978;50.288;28.624;2023-11-19T05:07:35;99418.25;;;-2.78;80.44
60337;BME280;46978;50.288;28.624;2023-11-19T05:08:37;99419.98;;;-2.77;80.72
60337;BME280;46978;50.288;28.624;2023-11-19T05:09:38;99415.65;;;-2.80;80.74
60337;BME280;46978;50.288;28.624;2023-11-19T05:10:40;99413.16;;;-2.78;80.98
60337;BME280;46978;50.288;28.624;2023-11-19T05:11:42;99419.16;;;-2.76;80.98
60337;BME280;46978;50.288;28.624;2023-11-19T05:12:43;99411.53;;;-2.76;80.91
60337;BME280;46978;50.288;28.624;2023-11-19T05:13:45;99409.83;;;-2.77;81.15
60337;BME280;46978;50.288;28.624;2023-11-19T05:14:47;99409.88;;;-2.76;81.02
60337;BME280;46978;50.288;28.624;2023-11-19T05:15:48;99410.68;;;-2.77;81.02
60337;BME280;46978;50.288;28.624;2023-11-19T05:16:50;99405.60;;;-2.77;81.10
60337;BME280;46978;50.288;28.624;2023-11-19T05:17:51;99409.83;;;-2.77;81.33
60337;BME280;46978;50.288;28.624;2023-11-19T05:18:53;99406.34;;;-2.79;81.45
60337;BME280;46978;50.288;28.624;2023-11-19T05:19:54;99402.16;;;-2.79;81.34
60337;BME280;46978;50.288;28.624;2023-11-19T05:20:56;99409.83;;;-2.77;81.44
60337;BME280;46978;50.288;28.624;2023-11-19T05:21:57;99407.34;;;-2.76;81.71
60337;BME280;46978;50.288;28.624;2023-11-19T05:22:59;99399.78;;;-2.74;81.49
60337;BME280;46978;50.288;28.624;2023-11-19T05:24:02;99404.86;;;-2.74;81.67